Terminal Aerodrome Forecast
Issued by NWS Austin/San Antonio, TX

Home | Current Version | Previous Version | Text Only | Print | Product List | Glossary On
Versions: 1 2 3 4 5 6 7 8 9 10 11 12 13 14 15 16
985
FTUS44 KEWX 261728
TAFAUS
TAF
KAUS 261728Z 2618/2724 11005KT P6SM SCT030 BKN200
     FM261900 12007KT P6SM SCT050 SCT250
     FM270900 18005KT P6SM SCT012 SCT250
      TEMPO 2712/2715 BKN012
     FM271500 VRB03KT P6SM SCT028 SCT250
     FM272000 09007KT P6SM BKN040 BKN250=

USA.gov is the U.S. government's official web portal to all federal, state and local government web resources and services.